createdAt,value
2015-02-21T00:00:09.763Z,98844
2015-02-21T00:00:21.815Z,98856
2015-02-21T00:00:33.784Z,98862
2015-02-21T00:00:45.809Z,98844
2015-02-21T00:00:57.788Z,98844
2015-02-21T00:01:09.831Z,98850
2015-02-21T00:01:21.737Z,98847
2015-02-21T00:01:33.745Z,98850
2015-02-21T00:01:45.731Z,98853
2015-02-21T00:01:57.793Z,98853
2015-02-21T00:02:09.800Z,98844
2015-02-21T00:02:28.383Z,98856
2015-02-21T00:02:40.421Z,98847
2015-02-21T00:02:52.470Z,98842
2015-02-21T00:03:04.499Z,98839
2015-02-21T00:03:16.516Z,98850
2015-02-21T00:03:28.553Z,98844
2015-02-21T00:03:40.499Z,98844
2015-02-21T00:03:59.130Z,98847
2015-02-21T00:04:11.151Z,98853
2015-02-21T00:04:23.220Z,98853
2015-02-21T00:04:35.261Z,98853
2015-02-21T00:04:47.245Z,98853
2015-02-21T00:04:59.238Z,98850
2015-02-21T00:05:11.243Z,98853
2015-02-21T00:05:29.878Z,98844
2015-02-21T00:05:41.881Z,98850
2015-02-21T00:05:53.846Z,98853
2015-02-21T00:06:12.526Z,98844
2015-02-21T00:06:24.615Z,98847
2015-02-21T00:06:36.573Z,98842
2015-02-21T00:06:48.587Z,98856
2015-02-21T00:07:00.668Z,98839
2015-02-21T00:07:12.705Z,98844
2015-02-21T00:07:24.748Z,98853
2015-02-21T00:07:36.752Z,98836
2015-02-21T00:07:48.793Z,98850
2015-02-21T00:08:00.812Z,98850
2015-02-21T00:08:12.840Z,98850
2015-02-21T00:08:24.900Z,98847
2015-02-21T00:08:36.929Z,98853
2015-02-21T00:08:48.875Z,98850
2015-02-21T00:09:07.521Z,98856
2015-02-21T00:09:19.502Z,98844
2015-02-21T00:09:31.500Z,98847
2015-02-21T00:09:43.541Z,98850
2015-02-21T00:09:55.635Z,98839
2015-02-21T00:10:07.641Z,98842
2015-02-21T00:10:19.629Z,98844
2015-02-21T00:10:31.681Z,98856
2015-02-21T00:10:50.306Z,98850
2015-02-21T00:11:02.315Z,98844
2015-02-21T00:11:14.287Z,98839
2015-02-21T00:11:32.992Z,98847
2015-02-21T00:11:45.002Z,98839
2015-02-21T00:11:57.039Z,98839
2015-02-21T00:12:09.041Z,98836
2015-02-21T00:12:21.082Z,98850
2015-02-21T00:12:33.100Z,98844
2015-02-21T00:12:45.105Z,98842
2015-02-21T00:12:57.045Z,98847
2015-02-21T00:13:09.080Z,98836
2015-02-21T00:13:21.100Z,98839
2015-02-21T00:13:39.779Z,98847
2015-02-21T00:13:51.824Z,98844
2015-02-21T00:14:03.930Z,98839
2015-02-21T00:14:23.206Z,98844
2015-02-21T00:14:35.229Z,98839
2015-02-21T00:14:47.392Z,98839
2015-02-21T00:14:59.487Z,98833
2015-02-21T00:15:11.617Z,98839
2015-02-21T00:15:23.698Z,98850
2015-02-21T00:15:42.383Z,98842
2015-02-21T00:15:54.477Z,98839
2015-02-21T00:16:06.527Z,98839
2015-02-21T00:16:18.616Z,98836
2015-02-21T00:16:30.635Z,98847
2015-02-21T00:16:42.748Z,98839
2015-02-21T00:16:54.770Z,98833
2015-02-21T00:17:20.065Z,98830
2015-02-21T00:17:38.768Z,98839
2015-02-21T00:17:50.798Z,98836
2015-02-21T00:18:02.894Z,98836
2015-02-21T00:18:15.037Z,98833
2015-02-21T00:18:33.668Z,98836
2015-02-21T00:18:45.659Z,98833
2015-02-21T00:18:57.654Z,98836
2015-02-21T00:19:09.658Z,98833
2015-02-21T00:19:21.732Z,98830
2015-02-21T00:19:33.691Z,98836
2015-02-21T00:19:45.703Z,98833
2015-02-21T00:19:57.765Z,98822
2015-02-21T00:20:09.772Z,98841
2015-02-21T00:20:21.809Z,98827
2015-02-21T00:20:33.844Z,98827
2015-02-21T00:20:45.823Z,98836
2015-02-21T00:20:57.838Z,98841
2015-02-21T00:21:09.869Z,98833
2015-02-21T00:21:21.903Z,98830
2015-02-21T00:21:34.032Z,98822
2015-02-21T00:21:52.658Z,98830
2015-02-21T00:22:04.660Z,98825
2015-02-21T00:22:16.717Z,98827
2015-02-21T00:22:35.378Z,98841
2015-02-21T00:22:47.420Z,98827
2015-02-21T00:22:59.441Z,98822
2015-02-21T00:23:11.406Z,98827
2015-02-21T00:23:23.399Z,98830
2015-02-21T00:23:35.361Z,98822
2015-02-21T00:23:47.434Z,98827
2015-02-21T00:23:59.392Z,98825
2015-02-21T00:24:11.414Z,98830
2015-02-21T00:24:23.472Z,98825
2015-02-21T00:24:35.535Z,98830
2015-02-21T00:24:47.594Z,98825
2015-02-21T00:24:59.563Z,98827
2015-02-21T00:25:18.210Z,98825
2015-02-21T00:25:30.215Z,98822
2015-02-21T00:25:42.250Z,98814
2015-02-21T00:25:54.319Z,98819
2015-02-21T00:26:06.382Z,98825
2015-02-21T00:26:25.015Z,98827
2015-02-21T00:26:37.059Z,98827
2015-02-21T00:26:49.094Z,98819
2015-02-21T00:27:01.110Z,98819
2015-02-21T00:27:13.190Z,98822
2015-02-21T00:27:31.846Z,98822
2015-02-21T00:27:43.883Z,98817
2015-02-21T00:28:02.563Z,98825
2015-02-21T00:28:14.633Z,98819
2015-02-21T00:28:26.662Z,98817
2015-02-21T00:28:38.720Z,98819
2015-02-21T00:28:50.791Z,98814
2015-02-21T00:29:02.734Z,98817
2015-02-21T00:29:21.385Z,98819
2015-02-21T00:29:33.476Z,98808
2015-02-21T00:29:45.576Z,98814
2015-02-21T00:29:57.697Z,98825
2015-02-21T00:30:16.304Z,98822
2015-02-21T00:30:28.326Z,98808
2015-02-21T00:30:40.431Z,98827
2015-02-21T00:30:59.186Z,98814
2015-02-21T00:31:11.239Z,98817
2015-02-21T00:31:23.258Z,98814
2015-02-21T00:31:48.572Z,98814
2015-02-21T00:32:00.670Z,98817
2015-02-21T00:32:19.266Z,98808
2015-02-21T00:32:37.953Z,98817
2015-02-21T00:32:56.598Z,98805
2015-02-21T00:33:08.648Z,98799
2015-02-21T00:33:33.898Z,98817
2015-02-21T00:33:45.950Z,98822
2015-02-21T00:33:57.976Z,98797
2015-02-21T00:34:09.990Z,98802
2015-02-21T00:34:35.276Z,98811
2015-02-21T00:34:53.990Z,98799
2015-02-21T00:35:06.033Z,98808
2015-02-21T00:35:18.093Z,98799
2015-02-21T00:35:30.095Z,98805
2015-02-21T00:35:42.160Z,98797
2015-02-21T00:35:54.164Z,98805
2015-02-21T00:36:06.194Z,98811
2015-02-21T00:36:24.835Z,98799
2015-02-21T00:36:43.540Z,98808
2015-02-21T00:36:55.568Z,98796
2015-02-21T00:37:14.166Z,98808
2015-02-21T00:37:26.262Z,98796
2015-02-21T00:37:38.280Z,98811
2015-02-21T00:37:50.323Z,98796
2015-02-21T00:38:15.582Z,98794
2015-02-21T00:38:34.291Z,98799
2015-02-21T00:38:52.913Z,98794
2015-02-21T00:39:04.954Z,98794
2015-02-21T00:39:17.002Z,98796
2015-02-21T00:39:29.106Z,98802
2015-02-21T00:39:47.787Z,98796
2015-02-21T00:40:06.492Z,98794
2015-02-21T00:40:18.499Z,98794
2015-02-21T00:40:30.492Z,98783
2015-02-21T00:40:42.523Z,98791
2015-02-21T00:40:54.575Z,98794
2015-02-21T00:41:06.575Z,98786
2015-02-21T00:41:25.178Z,98791
2015-02-21T00:41:43.846Z,98799
2015-02-21T00:41:55.868Z,98786
2015-02-21T00:42:07.948Z,98791
2015-02-21T00:42:20.043Z,98794
2015-02-21T00:42:32.077Z,98783
2015-02-21T00:42:50.769Z,98794
2015-02-21T00:43:02.865Z,98794
2015-02-21T00:43:14.897Z,98799
2015-02-21T00:43:26.845Z,98797
2015-02-21T00:43:38.907Z,98797
2015-02-21T00:43:50.974Z,98794
2015-02-21T00:44:03.018Z,98786
2015-02-21T00:44:21.678Z,98796
2015-02-21T00:44:33.742Z,98799
2015-02-21T00:44:45.727Z,98797
2015-02-21T00:45:10.983Z,98780
2015-02-21T00:45:23.032Z,98774
2015-02-21T00:45:41.682Z,98780
2015-02-21T00:45:53.651Z,98786
2015-02-21T00:46:05.741Z,98780
2015-02-21T00:46:17.762Z,98786
2015-02-21T00:46:29.792Z,98777
2015-02-21T00:46:41.961Z,98777
2015-02-21T00:46:53.989Z,98791
2015-02-21T00:47:05.975Z,98783
2015-02-21T00:47:18.013Z,98780
2015-02-21T00:47:30.022Z,98786
2015-02-21T00:47:42.100Z,98780
2015-02-21T00:48:00.730Z,98780
2015-02-21T00:48:12.826Z,98774
2015-02-21T00:48:31.517Z,98783
2015-02-21T00:48:43.558Z,98777
2015-02-21T00:49:02.255Z,98780
2015-02-21T00:49:14.243Z,98786
2015-02-21T00:49:26.241Z,98774
2015-02-21T00:49:38.302Z,98774
2015-02-21T00:49:50.386Z,98774
2015-02-21T00:50:02.363Z,98772
2015-02-21T00:50:14.472Z,98780
2015-02-21T00:50:33.225Z,98769
2015-02-21T00:50:45.232Z,98769
2015-02-21T00:50:57.181Z,98783
2015-02-21T00:51:09.213Z,98774
2015-02-21T00:51:27.852Z,98774
2015-02-21T00:51:39.897Z,98766
2015-02-21T00:51:51.947Z,98777
2015-02-21T00:52:04.013Z,98777
2015-02-21T00:52:16.041Z,98774
2015-02-21T00:52:28.074Z,98769
2015-02-21T00:52:40.103Z,98766
2015-02-21T00:52:52.129Z,98769
2015-02-21T00:53:10.735Z,98769
2015-02-21T00:53:22.818Z,98772
2015-02-21T00:53:34.866Z,98769
2015-02-21T00:53:46.889Z,98766
2015-02-21T00:53:58.991Z,98774
2015-02-21T00:54:11.012Z,98766
2015-02-21T00:54:29.732Z,98772
2015-02-21T00:54:48.450Z,98769
2015-02-21T00:55:00.441Z,98772
2015-02-21T00:55:12.491Z,98774
2015-02-21T00:55:24.567Z,98769
2015-02-21T00:55:36.611Z,98754
2015-02-21T00:55:48.717Z,98763
2015-02-21T00:56:00.758Z,98766
2015-02-21T00:56:12.784Z,98760
2015-02-21T00:56:24.799Z,98766
2015-02-21T00:56:36.779Z,98763
2015-02-21T00:56:48.755Z,98757
2015-02-21T00:57:07.446Z,98760
2015-02-21T00:57:19.411Z,98754
2015-02-21T00:57:31.402Z,98766
2015-02-21T00:57:43.415Z,98763
2015-02-21T00:57:55.421Z,98757
2015-02-21T00:58:07.443Z,98760
2015-02-21T00:58:19.404Z,98757
2015-02-21T00:58:31.443Z,98760
2015-02-21T00:58:43.461Z,98766
2015-02-21T00:59:02.156Z,98760
2015-02-21T00:59:27.330Z,98757
2015-02-21T00:59:39.386Z,98754
2015-02-21T00:59:58.083Z,98749
2015-02-21T01:00:10.144Z,98757
2015-02-21T01:00:22.196Z,98749
2015-02-21T01:00:34.260Z,98757
2015-02-21T01:00:46.302Z,98746
2015-02-21T01:00:58.963Z,98757
2015-02-21T01:01:17.591Z,98746
2015-02-21T01:01:29.579Z,98746
2015-02-21T01:01:41.632Z,98743
2015-02-21T01:01:53.649Z,98746
2015-02-21T01:02:06.130Z,98746
2015-02-21T01:02:18.124Z,98746
2015-02-21T01:02:36.686Z,98757
2015-02-21T01:02:48.801Z,98746
2015-02-21T01:03:00.873Z,98743
2015-02-21T01:03:19.542Z,98749
2015-02-21T01:03:31.617Z,98746
2015-02-21T01:03:43.606Z,98740
2015-02-21T01:04:02.272Z,98743
2015-02-21T01:04:14.239Z,98740
2015-02-21T01:04:26.254Z,98749
2015-02-21T01:04:45.004Z,98749
2015-02-21T01:04:57.053Z,98740
2015-02-21T01:05:15.657Z,98740
2015-02-21T01:05:27.740Z,98749
2015-02-21T01:05:39.756Z,98737
2015-02-21T01:05:51.794Z,98740
2015-02-21T01:06:03.844Z,98740
2015-02-21T01:06:15.881Z,98743
2015-02-21T01:06:27.813Z,98734
2015-02-21T01:06:39.806Z,98743
2015-02-21T01:06:51.803Z,98740
2015-02-21T01:07:03.816Z,98734
2015-02-21T01:07:15.813Z,98740
2015-02-21T01:07:27.863Z,98728
2015-02-21T01:07:39.900Z,98734
2015-02-21T01:07:58.587Z,98740
2015-02-21T01:08:10.595Z,98728
2015-02-21T01:08:22.651Z,98734
2015-02-21T01:08:34.647Z,98734
2015-02-21T01:08:46.667Z,98740
2015-02-21T01:08:58.681Z,98731
2015-02-21T01:09:10.689Z,98726
2015-02-21T01:09:22.728Z,98734
2015-02-21T01:09:34.797Z,98734
2015-02-21T01:09:46.805Z,98726
2015-02-21T01:09:58.825Z,98728
2015-02-21T01:10:10.833Z,98734
2015-02-21T01:10:22.892Z,98731
2015-02-21T01:10:34.938Z,98714
2015-02-21T01:10:46.974Z,98720
2015-02-21T01:10:59.042Z,98723
2015-02-21T01:11:17.738Z,98726
2015-02-21T01:11:29.792Z,98731
2015-02-21T01:11:41.732Z,98728
2015-02-21T01:12:00.403Z,98728
2015-02-21T01:12:12.371Z,98723
2015-02-21T01:12:24.438Z,98723
2015-02-21T01:12:36.415Z,98723
2015-02-21T01:12:48.492Z,98723
2015-02-21T01:13:00.536Z,98723
2015-02-21T01:13:12.565Z,98714
2015-02-21T01:13:24.580Z,98720
2015-02-21T01:13:43.203Z,98711
2015-02-21T01:14:01.839Z,98717
2015-02-21T01:14:13.819Z,98717
2015-02-21T01:14:32.456Z,98711
2015-02-21T01:14:44.500Z,98711
2015-02-21T01:15:03.120Z,98717
2015-02-21T01:15:15.105Z,98711
2015-02-21T01:15:27.052Z,98723
2015-02-21T01:15:45.719Z,98711
2015-02-21T01:15:57.720Z,98714
2015-02-21T01:16:09.738Z,98717
2015-02-21T01:16:21.739Z,98711
2015-02-21T01:16:33.798Z,98708
2015-02-21T01:16:52.426Z,98711
2015-02-21T01:17:11.117Z,98720
2015-02-21T01:17:23.112Z,98720
2015-02-21T01:17:35.244Z,98717
2015-02-21T01:17:47.283Z,98720
2015-02-21T01:17:59.290Z,98711
2015-02-21T01:18:11.322Z,98714
2015-02-21T01:18:23.287Z,98723
2015-02-21T01:18:35.380Z,98703
2015-02-21T01:18:47.457Z,98720
2015-02-21T01:18:59.503Z,98706
2015-02-21T01:19:11.495Z,98703
2015-02-21T01:19:30.118Z,98720
2015-02-21T01:19:42.191Z,98720
2015-02-21T01:20:00.856Z,98708
2015-02-21T01:20:12.873Z,98714
2015-02-21T01:20:24.935Z,98708
2015-02-21T01:20:37.020Z,98703
2015-02-21T01:20:49.011Z,98697
2015-02-21T01:21:07.599Z,98706
2015-02-21T01:21:19.614Z,98708
2015-02-21T01:21:31.603Z,98711
2015-02-21T01:21:43.651Z,98711
2015-02-21T01:21:55.628Z,98711
2015-02-21T01:22:07.665Z,98700
2015-02-21T01:22:19.741Z,98705
2015-02-21T01:22:31.752Z,98711
2015-02-21T01:22:43.785Z,98697
2015-02-21T01:22:55.774Z,98708
2015-02-21T01:23:07.807Z,98717
2015-02-21T01:23:19.817Z,98706
2015-02-21T01:23:31.835Z,98705
2015-02-21T01:23:43.838Z,98700
2015-02-21T01:23:55.912Z,98705
2015-02-21T01:24:07.924Z,98708
2015-02-21T01:24:19.920Z,98703
2015-02-21T01:24:31.936Z,98700
2015-02-21T01:24:50.641Z,98705
2015-02-21T01:25:02.742Z,98697
2015-02-21T01:25:14.812Z,98711
2015-02-21T01:25:26.824Z,98700
2015-02-21T01:25:38.835Z,98700
2015-02-21T01:25:50.915Z,98697
2015-02-21T01:26:02.971Z,98703
2015-02-21T01:26:21.596Z,98694
2015-02-21T01:26:33.629Z,98694
2015-02-21T01:26:45.710Z,98685
2015-02-21T01:26:57.749Z,98694
2015-02-21T01:27:09.883Z,98694
2015-02-21T01:27:21.907Z,98697
2015-02-21T01:27:33.972Z,98705
2015-02-21T01:27:46.000Z,98694
2015-02-21T01:27:58.036Z,98691
2015-02-21T01:28:10.731Z,98700
2015-02-21T01:28:22.812Z,98688
2015-02-21T01:28:34.934Z,98694
2015-02-21T01:28:46.951Z,98697
2015-02-21T01:28:58.970Z,98691
2015-02-21T01:29:17.605Z,98691
2015-02-21T01:29:36.260Z,98697
2015-02-21T01:29:54.872Z,98694
2015-02-21T01:30:06.919Z,98691
2015-02-21T01:30:18.942Z,98685
2015-02-21T01:30:30.984Z,98688
2015-02-21T01:30:43.047Z,98685
2015-02-21T01:30:55.081Z,98685
2015-02-21T01:31:07.171Z,98682
2015-02-21T01:31:19.268Z,98691
2015-02-21T01:31:31.276Z,98680
2015-02-21T01:31:43.263Z,98677
2015-02-21T01:31:55.328Z,98680
2015-02-21T01:32:13.936Z,98685
2015-02-21T01:32:25.900Z,98688
2015-02-21T01:32:37.930Z,98677
2015-02-21T01:32:56.564Z,98682
2015-02-21T01:33:08.706Z,98682
2015-02-21T01:33:20.658Z,98677
2015-02-21T01:33:32.719Z,98680
2015-02-21T01:33:51.306Z,98685
2015-02-21T01:34:03.367Z,98674
2015-02-21T01:34:15.398Z,98682
2015-02-21T01:34:34.021Z,98677
2015-02-21T01:34:52.734Z,98677
2015-02-21T01:35:04.802Z,98674
2015-02-21T01:35:16.756Z,98674
2015-02-21T01:35:28.763Z,98671
2015-02-21T01:35:40.769Z,98680
2015-02-21T01:35:52.754Z,98682
2015-02-21T01:36:04.847Z,98677
2015-02-21T01:36:16.916Z,98680
2015-02-21T01:36:28.940Z,98671
2015-02-21T01:36:41.041Z,98668
2015-02-21T01:36:53.143Z,98671
2015-02-21T01:37:05.122Z,98668
2015-02-21T01:37:17.192Z,98677
2015-02-21T01:37:35.881Z,98674
2015-02-21T01:37:47.944Z,98668
2015-02-21T01:37:59.945Z,98674
2015-02-21T01:38:18.685Z,98668
2015-02-21T01:38:30.697Z,98674
2015-02-21T01:38:42.732Z,98682
2015-02-21T01:39:01.369Z,98674
2015-02-21T01:39:13.413Z,98668
2015-02-21T01:39:32.015Z,98674
2015-02-21T01:39:50.689Z,98677
2015-02-21T01:40:02.737Z,98674
2015-02-21T01:40:21.402Z,98671
2015-02-21T01:40:33.449Z,98668
2015-02-21T01:40:45.504Z,98671
2015-02-21T01:40:57.554Z,98671
2015-02-21T01:41:09.582Z,98665
2015-02-21T01:41:21.722Z,98671
2015-02-21T01:41:33.790Z,98665
2015-02-21T01:41:52.439Z,98662
2015-02-21T01:42:04.510Z,98657
2015-02-21T01:42:16.592Z,98655
2015-02-21T01:42:28.572Z,98660
2015-02-21T01:42:40.553Z,98660
2015-02-21T01:42:52.559Z,98662
2015-02-21T01:43:11.276Z,98671
2015-02-21T01:43:23.284Z,98657
2015-02-21T01:43:35.290Z,98668
2015-02-21T01:43:47.302Z,98662
2015-02-21T01:43:59.361Z,98655
2015-02-21T01:44:11.315Z,98657
2015-02-21T01:44:23.336Z,98655
2015-02-21T01:44:35.383Z,98655
2015-02-21T01:44:47.477Z,98657
2015-02-21T01:44:59.492Z,98662
2015-02-21T01:45:11.543Z,98657
2015-02-21T01:45:23.547Z,98660
2015-02-21T01:45:42.273Z,98652
2015-02-21T01:45:54.244Z,98649
2015-02-21T01:46:06.267Z,98649
2015-02-21T01:46:18.407Z,98652
2015-02-21T01:46:37.120Z,98652
2015-02-21T01:46:49.200Z,98655
2015-02-21T01:47:07.818Z,98659
2015-02-21T01:47:19.837Z,98655
2015-02-21T01:47:31.880Z,98659
2015-02-21T01:47:50.542Z,98652
2015-02-21T01:48:02.571Z,98643
2015-02-21T01:48:14.661Z,98652
2015-02-21T01:48:26.668Z,98646
2015-02-21T01:48:38.776Z,98638
2015-02-21T01:48:50.871Z,98640
2015-02-21T01:49:09.564Z,98640
2015-02-21T01:49:28.287Z,98638
2015-02-21T01:49:40.237Z,98646
2015-02-21T01:49:52.276Z,98646
2015-02-21T01:50:04.248Z,98643
2015-02-21T01:50:16.279Z,98649
2015-02-21T01:50:28.284Z,98646
2015-02-21T01:50:40.311Z,98638
2015-02-21T01:50:58.934Z,98640
2015-02-21T01:51:17.564Z,98638
2015-02-21T01:51:29.594Z,98655
2015-02-21T01:51:41.565Z,98643
2015-02-21T01:51:53.593Z,98640
2015-02-21T01:52:05.599Z,98637
2015-02-21T01:52:24.291Z,98649
2015-02-21T01:52:36.329Z,98640
2015-02-21T01:52:48.315Z,98637
2015-02-21T01:53:00.309Z,98637
2015-02-21T01:53:12.419Z,98640
2015-02-21T01:53:31.105Z,98635
2015-02-21T01:53:43.199Z,98640
2015-02-21T01:53:55.224Z,98640
2015-02-21T01:54:13.835Z,98632
2015-02-21T01:54:25.933Z,98646
2015-02-21T01:54:51.222Z,98640
2015-02-21T01:55:03.251Z,98640
2015-02-21T01:55:15.256Z,98637
2015-02-21T01:55:27.275Z,98640
2015-02-21T01:55:39.298Z,98637
2015-02-21T01:55:51.325Z,98640
2015-02-21T01:56:03.388Z,98637
2015-02-21T01:56:28.652Z,98632
2015-02-21T01:56:40.681Z,98637
2015-02-21T01:56:59.305Z,98646
2015-02-21T01:57:11.356Z,98640
2015-02-21T01:57:23.443Z,98640
2015-02-21T01:57:35.526Z,98626
2015-02-21T01:57:47.498Z,98635
2015-02-21T01:57:59.586Z,98632
2015-02-21T01:58:11.550Z,98632
2015-02-21T01:58:23.634Z,98626
2015-02-21T01:58:35.658Z,98635
2015-02-21T01:58:54.291Z,98635
2015-02-21T01:59:06.313Z,98640
2015-02-21T01:59:18.348Z,98626
2015-02-21T01:59:37.090Z,98626
2015-02-21T01:59:49.152Z,98632
2015-02-21T02:00:01.258Z,98617
2015-02-21T02:00:13.320Z,98629
2015-02-21T02:00:25.355Z,98635
2015-02-21T02:00:37.368Z,98629
2015-02-21T02:00:49.308Z,98626
2015-02-21T02:01:01.343Z,98632
2015-02-21T02:01:13.312Z,98635
2015-02-21T02:01:25.357Z,98632
2015-02-21T02:01:44.048Z,98626
2015-02-21T02:01:56.201Z,98620
2015-02-21T02:02:14.793Z,98626
2015-02-21T02:02:26.838Z,98632
2015-02-21T02:02:38.828Z,98626
2015-02-21T02:02:50.853Z,98620
2015-02-21T02:03:16.145Z,98617
2015-02-21T02:03:28.271Z,98620
2015-02-21T02:03:40.375Z,98609
2015-02-21T02:03:52.502Z,98617
2015-02-21T02:04:04.482Z,98617
2015-02-21T02:04:16.515Z,98615
2015-02-21T02:04:28.583Z,98620
2015-02-21T02:04:40.689Z,98620
2015-02-21T02:04:52.740Z,98615
2015-02-21T02:05:04.805Z,98609
2015-02-21T02:05:16.804Z,98617
2015-02-21T02:05:35.477Z,98626
2015-02-21T02:05:47.577Z,98609
2015-02-21T02:05:59.645Z,98615
2015-02-21T02:06:11.664Z,98617
2015-02-21T02:06:23.667Z,98620
2015-02-21T02:06:42.307Z,98623
2015-02-21T02:06:54.383Z,98617
2015-02-21T02:07:06.446Z,98612
2015-02-21T02:07:18.540Z,98617
2015-02-21T02:07:30.555Z,98623
2015-02-21T02:07:42.582Z,98603
2015-02-21T02:07:54.586Z,98614
2015-02-21T02:08:13.218Z,98606
2015-02-21T02:08:25.312Z,98603
2015-02-21T02:08:37.379Z,98606
2015-02-21T02:08:49.481Z,98614
2015-02-21T02:09:01.544Z,98600
2015-02-21T02:09:13.611Z,98612
2015-02-21T02:09:32.363Z,98603
2015-02-21T02:09:44.412Z,98612
2015-02-21T02:09:56.401Z,98612
2015-02-21T02:10:08.448Z,98603
2015-02-21T02:10:20.524Z,98600
2015-02-21T02:10:32.575Z,98600
2015-02-21T02:10:44.685Z,98597
2015-02-21T02:10:56.685Z,98609
2015-02-21T02:11:08.727Z,98609
2015-02-21T02:11:20.725Z,98600
2015-02-21T02:11:32.720Z,98603
2015-02-21T02:11:44.774Z,98609
2015-02-21T02:11:56.746Z,98600
2015-02-21T02:12:15.468Z,98606
2015-02-21T02:12:27.485Z,98592
2015-02-21T02:12:39.613Z,98609
2015-02-21T02:12:51.700Z,98594
2015-02-21T02:13:03.801Z,98597
2015-02-21T02:13:15.880Z,98597
2015-02-21T02:13:27.924Z,98600
2015-02-21T02:13:39.974Z,98583
2015-02-21T02:13:52.055Z,98603
2015-02-21T02:14:10.730Z,98594
2015-02-21T02:14:29.359Z,98597
2015-02-21T02:14:54.650Z,98594
2015-02-21T02:15:06.702Z,98594
2015-02-21T02:15:18.710Z,98594
2015-02-21T02:15:37.411Z,98594
2015-02-21T02:15:49.465Z,98592
2015-02-21T02:16:01.498Z,98594
2015-02-21T02:16:13.532Z,98592
2015-02-21T02:16:25.616Z,98589
2015-02-21T02:16:37.656Z,98594
2015-02-21T02:16:49.665Z,98600
2015-02-21T02:17:01.660Z,98597
2015-02-21T02:17:13.767Z,98594
2015-02-21T02:17:25.827Z,98591
2015-02-21T02:17:37.872Z,98592
2015-02-21T02:17:49.827Z,98586
2015-02-21T02:18:08.558Z,98580
2015-02-21T02:18:20.545Z,98589
2015-02-21T02:18:32.693Z,98583
2015-02-21T02:18:51.375Z,98589
2015-02-21T02:19:10.014Z,98592
2015-02-21T02:19:28.667Z,98583
2015-02-21T02:19:47.303Z,98577
2015-02-21T02:20:05.926Z,98580
2015-02-21T02:20:18.037Z,98583
2015-02-21T02:20:36.698Z,98591
2015-02-21T02:20:48.739Z,98577
2015-02-21T02:21:00.761Z,98577
2015-02-21T02:21:12.806Z,98589
2015-02-21T02:21:24.931Z,98583
2015-02-21T02:21:36.995Z,98583
2015-02-21T02:21:49.038Z,98569
2015-02-21T02:22:01.115Z,98577
2015-02-21T02:22:13.162Z,98577
2015-02-21T02:22:25.264Z,98577
2015-02-21T02:22:37.206Z,98586
2015-02-21T02:22:49.347Z,98571
2015-02-21T02:23:08.022Z,98580
2015-02-21T02:23:20.054Z,98580
2015-02-21T02:23:32.149Z,98577
2015-02-21T02:23:44.237Z,98571
2015-02-21T02:24:09.467Z,98574
2015-02-21T02:24:21.529Z,98580
2015-02-21T02:24:40.166Z,98577
2015-02-21T02:24:52.213Z,98580
2015-02-21T02:25:04.249Z,98569
2015-02-21T02:25:16.332Z,98574
2015-02-21T02:25:28.374Z,98571
2015-02-21T02:25:40.478Z,98571
2015-02-21T02:26:05.816Z,98577
2015-02-21T02:26:17.950Z,98574
2015-02-21T02:26:36.649Z,98571
2015-02-21T02:26:48.760Z,98563
2015-02-21T02:27:00.824Z,98580
2015-02-21T02:27:12.830Z,98574
2015-02-21T02:27:24.829Z,98580
2015-02-21T02:27:36.834Z,98577
2015-02-21T02:27:48.889Z,98571
2015-02-21T02:28:07.508Z,98577
2015-02-21T02:28:26.142Z,98568
2015-02-21T02:28:38.212Z,98566
2015-02-21T02:28:50.244Z,98580
2015-02-21T02:29:02.271Z,98574
2015-02-21T02:29:14.357Z,98569
2015-02-21T02:29:26.394Z,98571
2015-02-21T02:29:45.012Z,98563
2015-02-21T02:29:57.096Z,98577
2015-02-21T02:30:09.128Z,98571
2015-02-21T02:30:21.280Z,98566
2015-02-21T02:30:33.324Z,98568
2015-02-21T02:30:45.369Z,98563
2015-02-21T02:30:57.387Z,98566
